Ana Sayfa
METAR-TAF:

METAR-TAF

Havaalanları :

Victoria, Mahé, Seyşel Adaları

Enlem: 04-40S, Boylam: 055-31E, yükseklik: 3 m

Güncel hava durumu gözlemi

Rapor saat 04:00 UTC de 19 dakika önce yapıldı.
Rüzgar kuzeybatıdan 10 kt
Sıcaklık 30°C
Nem 75%
Basınç 1010 hPa
Görüş mesafesi 10 km veya daha fazla
2300 ft yükseklikte az bulutlu

METAR: FSIA 240400Z 31010KT 9999 FEW023 30/25 Q1010 NOSIG

Saat: 08:19 (04:19 UTC)

Tahmin

Rapor saat 17:01 UTC de 11 saat ve 18 dakika önce yapıldı.
Ayın 23'si saat 18 UTC'den ayın 24'si saat 18 UTC'ye kadar geçerli Tahmin
Rüzgar kuzeybatıdan 10 kt
Görüş mesafesi 10 km veya daha fazla
2000 ft yükseklikte parçalı bulutlu
Olasılık 40% :
Geçici
ayın 23'si saat 20 UTC'den ayın 23'si saat 24 UTC'ye kadar
Görüş mesafesi: 8000 m
1600 ft yükseklikte az bulutlu, Kümülonimbus.
1800 ft yükseklikte parçalı çok bulutlu
hafif sağanak yağmurlar

TAF: FSIA 231701Z 2318/2418 32010KT 9999 SCT020 PROB40 TEMPO 2320/2324 8000 -SHRA FEW016CB BKN018

4.000'den fazla havaalanı için hava durumu gözlemleri ve tahminleri (METAR ve TAF raporları).

Kullanılabilir istasyonlar harita üzerinde sarı ve kırmızı noktalarla gösterilir.

İstasyonun adını görmek için fareyi noktanın üzerinde gezdirin.

Sonrasında hava gözlem ve tahminlerini görmek için tıklayın.

Haritayı değiştirmek için: yaklaştırmak için siyah artı işaretli yeşil düğmeye ve uzaklaştırmak için de eksi işaretli düğmeye hızla tıklayın; bitişik haritalar için yeşil okları kullanın.


METAR-TAF: